Time;durP1;ratioP1;P1;durP2;ratioP2;P2;SDS_P1;SDS_P2;PMS_P1;PMS_P2;Temp;Humidity;BMP_temperature;BMP_pressure;BME280_temperature;BME280_humidity;BME280_pressure;Samples;Min_cycle;Max_cycle;Signal;HPM_P1;HPM_P2
2022/04/19 00:01:18;;;;;;;7.20;5.43;;;;;;;6.46;67.07;100860.63;4996173;28;20215;-84
2022/04/19 00:03:44;;;;;;;8.53;5.97;;;;;;;6.45;67.43;100861.56;4994540;28;20208;-86
2022/04/19 00:06:12;;;;;;;7.50;6.00;;;;;;;6.45;67.80;100858.94;4978760;28;20342;-83
2022/04/19 00:08:39;;;;;;;9.53;6.30;;;;;;;6.44;67.92;100863.38;4979270;28;20578;-83
2022/04/19 00:11:05;;;;;;;8.23;6.30;;;;;;;6.43;68.09;100856.34;4978964;28;20800;-84
2022/04/19 00:13:32;;;;;;;7.73;6.20;;;;;;;6.44;67.93;100849.28;4978550;28;20204;-83
2022/04/19 00:15:59;;;;;;;6.37;5.43;;;;;;;6.42;68.19;100857.28;4980643;28;20511;-83
2022/04/19 00:18:26;;;;;;;8.13;5.60;;;;;;;6.42;68.66;100853.78;4979033;28;20205;-83
2022/04/19 00:20:54;;;;;;;10.53;6.27;;;;;;;6.41;68.37;100847.63;4979873;28;20204;-83
2022/04/19 00:23:22;;;;;;;6.07;5.03;;;;;;;6.38;68.27;100845.09;4979882;28;20236;-83
2022/04/19 00:25:52;;;;;;;5.60;4.60;;;;;;;6.35;67.84;100836.44;4980407;28;20231;-83
2022/04/19 00:28:20;;;;;;;6.27;4.57;;;;;;;6.25;67.22;100835.97;4981056;28;20231;-82
2022/04/19 00:30:47;;;;;;;6.73;5.53;;;;;;;6.17;67.90;100831.00;4979857;28;20248;-83
2022/04/19 00:33:14;;;;;;;7.23;5.33;;;;;;;6.10;67.73;100824.22;4980793;28;20220;-82
2022/04/19 00:35:41;;;;;;;6.53;5.57;;;;;;;6.02;68.05;100831.66;4980744;28;20238;-82
2022/04/19 00:38:07;;;;;;;6.17;4.97;;;;;;;5.95;67.90;100838.09;4980589;28;20569;-82
2022/04/19 00:40:36;;;;;;;5.87;5.20;;;;;;;5.89;68.13;100833.94;4980836;28;20219;-82
2022/04/19 00:43:03;;;;;;;6.90;5.60;;;;;;;5.84;68.54;100829.72;4980597;28;20280;-82
2022/04/19 00:45:33;;;;;;;8.37;6.60;;;;;;;5.83;68.45;100828.00;4980405;28;20239;-82
2022/04/19 00:48:00;;;;;;;7.07;6.10;;;;;;;5.77;68.74;100830.88;4981154;28;20208;-82
2022/04/19 00:50:27;;;;;;;6.63;5.40;;;;;;;5.72;68.85;100833.75;4981484;28;20340;-82
2022/04/19 00:52:53;;;;;;;7.13;5.50;;;;;;;5.67;69.14;100827.78;4980495;28;20303;-83
2022/04/19 00:55:20;;;;;;;6.47;5.23;;;;;;;5.62;69.09;100832.38;4978398;28;20258;-82
2022/04/19 00:57:50;;;;;;;8.50;5.63;;;;;;;5.56;69.47;100824.69;4979656;28;20615;-83
2022/04/19 01:00:17;;;;;;;6.33;5.73;;;;;;;5.53;69.65;100830.97;4978364;28;20231;-83
2022/04/19 01:02:44;;;;;;;7.47;5.80;;;;;;;5.52;69.77;100817.81;4977927;28;20193;-82
2022/04/19 01:05:11;;;;;;;8.53;6.10;;;;;;;5.51;69.84;100829.31;4977973;28;20230;-82
2022/04/19 01:07:39;;;;;;;6.87;6.17;;;;;;;5.49;69.86;100817.94;4978223;28;20218;-83
2022/04/19 01:10:07;;;;;;;8.33;5.40;;;;;;;5.48;70.26;100827.66;4978124;28;20259;-82
2022/04/19 01:15:20;;;;;;;7.90;6.10;;;;;;;5.47;70.34;100825.91;4977777;28;20363;-83
2022/04/19 01:17:48;;;;;;;7.07;6.13;;;;;;;5.45;70.53;100822.47;4978496;28;20471;-83
2022/04/19 01:20:15;;;;;;;8.73;6.33;;;;;;;5.44;70.52;100825.19;4978838;28;20272;-83
2022/04/19 01:22:44;;;;;;;8.37;6.63;;;;;;;5.42;70.46;100842.88;4978761;28;20211;-83
2022/04/19 01:25:11;;;;;;;7.40;5.77;;;;;;;5.37;70.82;100829.00;4979081;28;20232;-82
2022/04/19 01:27:38;;;;;;;7.80;5.83;;;;;;;5.34;70.70;100827.34;4979065;28;20223;-82
2022/04/19 01:30:08;;;;;;;8.20;5.90;;;;;;;5.34;70.88;100826.47;4978496;28;20207;-83
2022/04/19 01:32:35;;;;;;;6.57;5.73;;;;;;;5.31;70.93;100835.38;4979252;28;20212;-82
2022/04/19 01:35:14;;;;;;;6.63;5.70;;;;;;;5.30;70.73;100831.00;4979807;28;20598;-82
2022/04/19 01:37:44;;;;;;;6.97;5.47;;;;;;;5.29;70.57;100834.56;4987642;28;20203;-82
2022/04/19 01:40:18;;;;;;;6.80;5.47;;;;;;;5.24;70.53;100824.16;4998951;28;20255;-82
2022/04/19 01:42:45;;;;;;;6.33;5.63;;;;;;;5.23;70.69;100821.59;5000125;28;20210;-81
2022/04/19 01:45:12;;;;;;;6.27;5.63;;;;;;;5.19;70.78;100828.78;4999904;28;20223;-81
2022/04/19 01:47:39;;;;;;;6.83;5.83;;;;;;;5.17;70.74;100824.47;4999714;28;20270;-82
2022/04/19 01:50:08;;;;;;;6.73;5.33;;;;;;;5.12;71.09;100827.28;5001264;28;20215;-82
2022/04/19 01:52:36;;;;;;;8.40;5.67;;;;;;;5.10;70.81;100826.47;5004423;28;20539;-82
2022/04/19 01:55:05;;;;;;;7.47;5.77;;;;;;;5.07;70.70;100828.38;5004430;28;20224;-82
2022/04/19 01:57:31;;;;;;;7.63;6.23;;;;;;;5.04;71.32;100825.84;5004001;28;20666;-82
2022/04/19 01:59:58;;;;;;;6.83;5.80;;;;;;;5.03;71.04;100830.25;5003501;28;20673;-82
2022/04/19 02:02:24;;;;;;;8.17;5.87;;;;;;;5.02;71.59;100819.75;5002672;28;20213;-81
2022/04/19 02:04:51;;;;;;;8.30;6.00;;;;;;;5.01;71.64;100820.72;5002337;28;20226;-82
2022/04/19 02:07:18;;;;;;;8.47;6.30;;;;;;;4.99;71.91;100822.53;5002573;28;20690;-82
2022/04/19 02:09:44;;;;;;;7.83;6.17;;;;;;;4.98;71.87;100823.47;5002617;28;20301;-82
2022/04/19 02:12:12;;;;;;;7.50;6.33;;;;;;;4.98;72.27;100820.81;5002619;28;20673;-82
2022/04/19 02:14:41;;;;;;;7.73;6.00;;;;;;;4.98;71.95;100819.03;5002900;28;20229;-82
2022/04/19 02:17:09;;;;;;;7.80;6.40;;;;;;;4.98;72.63;100818.19;5001404;28;20254;-82
2022/04/19 02:19:35;;;;;;;6.90;5.23;;;;;;;4.97;72.04;100813.81;5002219;28;20306;-82
2022/04/19 02:22:02;;;;;;;7.37;6.30;;;;;;;4.92;71.98;100816.63;5003499;28;20207;-83
2022/04/19 02:24:29;;;;;;;6.47;5.67;;;;;;;4.88;71.55;100815.00;5002964;28;20207;-83
2022/04/19 02:26:55;;;;;;;5.70;4.77;;;;;;;4.76;71.08;100813.69;5003377;28;20203;-82
2022/04/19 02:29:25;;;;;;;6.83;5.27;;;;;;;4.66;71.42;100820.19;5003846;28;20217;-82
2022/04/19 02:31:52;;;;;;;6.23;5.23;;;;;;;4.55;71.60;100811.84;5002853;28;20235;-81
2022/04/19 02:34:19;;;;;;;6.83;5.83;;;;;;;4.51;72.07;100812.84;5002677;28;20210;-82
2022/04/19 02:36:45;;;;;;;6.90;5.47;;;;;;;4.45;72.17;100815.72;5003248;28;20208;-82
2022/04/19 02:39:12;;;;;;;10.23;6.23;;;;;;;4.40;72.37;100812.38;5003279;28;20295;-82
2022/04/19 02:41:39;;;;;;;7.20;5.67;;;;;;;4.36;71.88;100816.03;5001396;28;20214;-81
2022/04/19 02:44:08;;;;;;;6.03;5.43;;;;;;;4.33;72.51;100810.88;5002778;28;20231;-82
2022/04/19 02:46:37;;;;;;;7.83;5.67;;;;;;;4.33;72.90;100816.13;5003597;28;20318;-82
2022/04/19 02:49:05;;;;;;;7.10;5.70;;;;;;;4.32;72.50;100815.28;5002317;28;20211;-81
2022/04/19 02:51:32;;;;;;;7.30;5.70;;;;;;;4.33;72.73;100821.41;5002071;28;20211;-82
2022/04/19 02:54:00;;;;;;;6.90;5.57;;;;;;;4.30;72.62;100806.56;5002799;28;20223;-81
2022/04/19 02:56:27;;;;;;;9.60;5.90;;;;;;;4.31;72.78;100807.41;5002787;28;20291;-82
2022/04/19 02:58:53;;;;;;;6.60;5.43;;;;;;;4.29;73.34;100804.88;5001612;28;20219;-82
2022/04/19 03:01:20;;;;;;;7.67;5.50;;;;;;;4.29;73.18;100804.00;5001533;28;20266;-83
2022/04/19 03:03:48;;;;;;;9.70;5.80;;;;;;;4.24;72.94;100804.16;5001775;28;20210;-82
2022/04/19 03:06:14;;;;;;;7.70;5.93;;;;;;;4.21;73.44;100798.97;5002889;28;20593;-81
2022/04/19 03:08:41;;;;;;;7.57;6.30;;;;;;;4.18;72.99;100792.03;5002200;28;20208;-83
2022/04/19 03:11:08;;;;;;;9.13;5.93;;;;;;;4.13;73.48;100799.22;5002317;28;20377;-83
2022/04/19 03:13:36;;;;;;;6.77;5.90;;;;;;;4.07;72.64;100801.25;5003799;28;20290;-82
2022/04/19 03:16:03;;;;;;;7.73;5.10;;;;;;;3.99;72.79;100803.25;5003537;28;20226;-82
2022/04/19 03:18:30;;;;;;;6.87;5.43;;;;;;;3.91;73.95;100797.41;5004187;28;20266;-81
2022/04/19 03:20:58;;;;;;;5.83;5.07;;;;;;;3.84;73.76;100797.59;5004165;28;20207;-81
2022/04/19 03:28:54;;;;;;;8.43;6.73;;;;;;;3.79;74.51;100803.91;5004056;28;20236;-81
2022/04/19 03:31:27;;;;;;;8.20;6.00;;;;;;;3.75;74.48;100805.81;5003225;28;20238;-81
2022/04/19 03:33:53;;;;;;;8.10;5.70;;;;;;;3.70;74.70;100804.25;5003531;28;20207;-81
2022/04/19 03:36:25;;;;;;;7.80;6.17;;;;;;;3.67;74.96;100801.69;5003980;28;20243;-81
2022/04/19 03:38:53;;;;;;;7.33;6.23;;;;;;;3.67;75.53;100810.47;5003486;28;20192;-81
2022/04/19 03:41:20;;;;;;;8.63;6.50;;;;;;;3.67;75.51;100804.34;5003375;28;20208;-81
2022/04/19 03:43:46;;;;;;;7.53;5.87;;;;;;;3.67;75.13;100806.97;5003021;28;20208;-81
2022/04/19 03:46:13;;;;;;;7.83;6.20;;;;;;;3.67;75.24;100810.47;5002792;28;20231;-80
2022/04/19 03:48:40;;;;;;;7.83;6.00;;;;;;;3.68;75.91;100811.31;5002850;28;20235;-81
2022/04/19 03:51:06;;;;;;;7.53;6.37;;;;;;;3.68;75.99;100812.19;5001957;28;20239;-81
2022/04/19 03:53:34;;;;;;;7.73;5.80;;;;;;;3.69;76.14;100820.94;5002812;28;20271;-81
2022/04/19 03:56:03;;;;;;;8.33;6.50;;;;;;;3.69;76.17;100815.69;5002890;28;20716;-81
2022/04/19 03:58:32;;;;;;;9.20;6.90;;;;;;;3.69;76.30;100816.53;5003269;28;20212;-82
2022/04/19 04:00:59;;;;;;;9.90;6.60;;;;;;;3.68;76.26;100817.44;5004251;28;20212;-81
2022/04/19 04:03:26;;;;;;;10.27;6.83;;;;;;;3.67;75.64;100821.00;5004959;28;20216;-82
2022/04/19 04:05:53;;;;;;;9.10;6.60;;;;;;;3.67;75.78;100821.00;5005979;28;20251;-82
2022/04/19 04:08:19;;;;;;;8.57;7.27;;;;;;;3.67;76.25;100821.00;5004523;28;20204;-81
2022/04/19 04:10:47;;;;;;;9.57;7.40;;;;;;;3.68;76.14;100827.13;5004538;28;20283;-81
2022/04/19 04:13:14;;;;;;;10.77;6.40;;;;;;;3.69;76.62;100831.50;5003370;28;20567;-82
2022/04/19 04:15:40;;;;;;;9.03;6.27;;;;;;;3.66;75.82;100818.41;5004283;28;20290;-82
2022/04/19 04:18:08;;;;;;;9.17;7.03;;;;;;;3.65;75.78;100827.22;5003800;28;20271;-82
2022/04/19 04:20:35;;;;;;;7.80;5.90;;;;;;;3.61;76.20;100830.84;5004054;28;20740;-81
2022/04/19 04:23:04;;;;;;;8.80;5.50;;;;;;;3.56;75.76;100838.06;5003918;28;20207;-81
2022/04/19 04:25:31;;;;;;;11.20;6.07;;;;;;;3.51;75.73;100835.56;5004060;28;20226;-81
2022/04/19 04:27:59;;;;;;;8.43;6.40;;;;;;;3.46;75.52;100829.56;5004515;28;20207;-81
2022/04/19 04:30:26;;;;;;;9.20;7.40;;;;;;;3.45;76.56;100830.47;5003528;28;20235;-81
2022/04/19 04:32:53;;;;;;;10.70;8.23;;;;;;;3.43;75.77;100825.25;5003919;28;20227;-82
2022/04/19 04:35:20;;;;;;;8.47;6.80;;;;;;;3.46;76.61;100835.69;5004386;28;20251;-82
2022/04/19 04:37:46;;;;;;;10.93;6.40;;;;;;;3.44;76.89;100834.88;5004201;28;20204;-81
2022/04/19 04:40:13;;;;;;;6.80;5.97;;;;;;;3.40;75.94;100843.78;5004420;28;20218;-81
2022/04/19 04:42:40;;;;;;;9.17;7.10;;;;;;;3.36;76.48;100846.56;5002419;28;20279;-82
2022/04/19 04:45:11;;;;;;;13.03;8.20;;;;;;;3.29;76.46;100839.75;5002513;28;20259;-82
2022/04/19 04:50:22;;;;;;;11.23;7.87;;;;;;;3.21;76.96;100837.38;5001548;28;20272;-81
2022/04/19 04:52:49;;;;;;;11.30;6.73;;;;;;;3.20;76.21;100838.28;5001372;28;20227;-82
2022/04/19 04:55:16;;;;;;;10.93;7.07;;;;;;;3.20;76.75;100840.91;5001919;28;20254;-82
2022/04/19 04:57:43;;;;;;;9.90;7.13;;;;;;;3.21;76.54;100841.78;5001373;28;20278;-82
2022/04/19 05:00:12;;;;;;;8.83;6.80;;;;;;;3.21;77.37;100839.16;5001033;28;20218;-81
2022/04/19 05:02:39;;;;;;;10.10;7.70;;;;;;;3.23;76.79;100837.31;5000893;28;20215;-82
2022/04/19 05:05:06;;;;;;;10.90;7.13;;;;;;;3.23;77.51;100840.81;4999608;28;20232;-82
2022/04/19 05:07:37;;;;;;;9.13;6.63;;;;;;;3.27;77.26;100844.22;4999000;28;20270;-81
2022/04/19 05:10:04;;;;;;;12.17;7.90;;;;;;;3.29;77.72;100845.03;4998837;28;20235;-81
2022/04/19 05:12:30;;;;;;;8.80;7.43;;;;;;;3.31;77.92;100849.34;4998416;28;20230;-82
2022/04/19 05:14:57;;;;;;;11.57;8.17;;;;;;;3.32;77.36;100842.31;4999705;28;20294;-82
2022/04/19 05:17:25;;;;;;;12.27;8.40;;;;;;;3.36;77.51;100855.34;4998727;28;20211;-83
2022/04/19 05:19:53;;;;;;;11.63;7.93;;;;;;;3.39;77.55;100854.38;4999367;28;20311;-82
2022/04/19 05:22:22;;;;;;;11.63;7.63;;;;;;;3.40;77.97;100851.69;4999656;28;20207;-83
2022/04/19 05:24:49;;;;;;;11.87;7.93;;;;;;;3.44;78.25;100855.94;4999497;28;20440;-82
2022/04/19 05:27:15;;;;;;;10.83;7.43;;;;;;;3.47;78.23;100857.63;4999699;28;20211;-82
2022/04/19 05:29:42;;;;;;;9.80;7.70;;;;;;;3.52;78.14;100852.22;5000610;28;21009;-82
2022/04/19 05:32:09;;;;;;;11.93;8.40;;;;;;;3.56;77.92;100864.41;4999539;28;20254;-81
2022/04/19 05:34:37;;;;;;;13.23;8.03;;;;;;;3.61;78.75;100862.47;4999685;28;20302;-82
2022/04/19 05:37:04;;;;;;;12.83;8.33;;;;;;;3.66;78.87;100857.91;5000144;28;20280;-82
2022/04/19 05:39:31;;;;;;;10.07;7.60;;;;;;;3.72;78.36;100860.38;4999184;28;20254;-81
2022/04/19 05:41:58;;;;;;;9.90;8.17;;;;;;;3.78;78.46;100853.09;4999153;28;20214;-82
2022/04/19 05:44:24;;;;;;;10.70;8.13;;;;;;;3.86;78.68;100858.16;4998815;28;20303;-82
2022/04/19 05:46:51;;;;;;;15.70;9.23;;;;;;;3.96;79.47;100848.16;4998342;28;20686;-82
2022/04/19 05:49:18;;;;;;;11.73;8.87;;;;;;;4.10;79.67;100851.22;4999201;28;20246;-82
2022/04/19 05:51:51;;;;;;;11.30;9.30;;;;;;;4.25;80.07;100852.47;4999762;28;20227;-82
2022/04/19 05:54:17;;;;;;;12.73;8.53;;;;;;;4.37;80.43;100855.53;4999475;28;20199;-82
2022/04/19 05:56:44;;;;;;;16.13;8.90;;;;;;;4.50;80.61;100856.81;4999981;28;20237;-82
2022/04/19 05:59:10;;;;;;;9.73;8.30;;;;;;;4.61;79.85;100858.25;4999664;28;20217;-82
2022/04/19 06:07:08;;;;;;;10.03;7.97;;;;;;;4.96;79.26;100868.38;4995418;28;20275;-84
2022/04/19 06:09:35;;;;;;;9.53;7.90;;;;;;;5.09;79.21;100866.13;4995237;28;20214;-85
2022/04/19 06:12:01;;;;;;;10.33;7.60;;;;;;;5.23;78.97;100864.69;4989920;28;20231;-85
2022/04/19 06:14:32;;;;;;;8.87;6.90;;;;;;;5.39;79.45;100869.38;4991591;28;20270;-85
2022/04/19 06:16:59;;;;;;;7.27;6.53;;;;;;;5.54;78.48;100874.97;4986358;28;20276;-84
2022/04/19 06:19:27;;;;;;;9.67;6.53;;;;;;;5.69;78.52;100864.72;4989962;28;20681;-85
2022/04/19 06:21:55;;;;;;;7.67;6.20;;;;;;;5.82;77.62;100861.50;4989672;28;20214;-85
2022/04/19 06:24:25;;;;;;;6.33;5.43;;;;;;;5.97;77.30;100865.34;4995117;28;20239;-84
2022/04/19 06:26:52;;;;;;;7.87;5.57;;;;;;;6.10;76.69;100861.25;4984950;28;20873;-85
2022/04/19 06:29:18;;;;;;;7.07;5.23;;;;;;;6.21;75.35;100856.41;4984994;28;20555;-85
2022/04/19 06:31:45;;;;;;;7.97;5.67;;;;;;;6.33;74.51;100859.44;4991158;28;20263;-85
2022/04/19 06:34:12;;;;;;;9.40;5.47;;;;;;;6.44;74.19;100857.22;4988322;28;20210;-86
2022/04/19 06:36:38;;;;;;;8.17;5.03;;;;;;;6.58;73.02;100849.53;4987701;28;20235;-84
2022/04/19 06:39:05;;;;;;;6.70;5.27;;;;;;;6.69;71.86;100847.25;4993889;28;20203;-84
2022/04/19 06:41:33;;;;;;;7.27;5.23;;;;;;;6.81;71.20;100852.00;4991268;28;20265;-85
2022/04/19 06:43:59;;;;;;;5.43;4.90;;;;;;;6.91;70.69;100855.97;4986148;28;20595;-85
2022/04/19 06:46:26;;;;;;;6.33;4.70;;;;;;;7.02;69.67;100850.19;4990576;28;20234;-86
2022/04/19 06:48:53;;;;;;;5.80;4.70;;;;;;;7.14;68.63;100859.38;4991397;28;20326;-86
2022/04/19 06:51:20;;;;;;;7.37;4.50;;;;;;;7.28;67.77;100862.25;4989484;28;20584;-85
2022/04/19 06:53:48;;;;;;;5.37;4.37;;;;;;;7.38;66.59;100863.53;4994858;28;20224;-86
2022/04/19 06:56:15;;;;;;;5.53;4.90;;;;;;;7.50;66.58;100851.50;4985523;28;20606;-86
2022/04/19 06:58:44;;;;;;;5.73;4.93;;;;;;;7.60;65.80;100858.06;4991289;28;20200;-86
2022/04/19 07:01:12;;;;;;;6.23;4.53;;;;;;;7.71;64.52;100861.06;4993641;28;20212;-86
2022/04/19 07:03:39;;;;;;;5.50;4.30;;;;;;;7.78;63.22;100867.78;4986237;28;20268;-85
2022/04/19 07:06:06;;;;;;;6.83;4.70;;;;;;;7.86;63.28;100868.28;4986747;28;20238;-86
2022/04/19 07:08:33;;;;;;;5.30;4.80;;;;;;;7.96;62.87;100871.34;4994101;28;20207;-87
2022/04/19 07:11:00;;;;;;;4.67;4.03;;;;;;;8.05;62.29;100875.34;4990795;28;20210;-86
2022/04/19 07:13:27;;;;;;;5.10;4.60;;;;;;;8.11;60.87;100875.03;4982059;28;20243;-86
2022/04/19 07:15:55;;;;;;;5.40;4.90;;;;;;;8.14;61.01;100870.44;4994515;28;20310;-87
2022/04/19 07:18:23;;;;;;;6.47;4.93;;;;;;;8.22;61.19;100870.06;4991000;28;20394;-86
2022/04/19 07:29:15;;;;;;;5.93;4.43;;;;;;;8.42;60.17;100883.19;4967476;28;20238;-86
2022/04/19 07:31:46;;;;;;;4.37;3.93;;;;;;;8.47;59.43;100885.63;4985931;28;20728;-87
2022/04/19 07:34:13;;;;;;;5.33;4.53;;;;;;;8.50;59.49;100885.47;4987443;28;20507;-86
2022/04/19 07:36:41;;;;;;;5.10;4.27;;;;;;;8.60;60.09;100889.34;4991340;28;20255;-86
2022/04/19 07:39:08;;;;;;;6.80;4.57;;;;;;;8.71;60.43;100884.38;4986234;28;20564;-88
2022/04/19 07:41:35;;;;;;;4.37;3.87;;;;;;;8.85;60.34;100886.31;4988441;28;20212;-86
2022/04/19 07:44:02;;;;;;;6.07;4.73;;;;;;;8.99;59.33;100891.75;4989857;28;20208;-86
2022/04/19 07:46:30;;;;;;;4.20;3.80;;;;;;;9.11;58.14;100892.91;4989294;28;20796;-86
2022/04/19 07:48:58;;;;;;;3.93;3.53;;;;;;;9.19;57.32;100880.91;4998257;28;20207;-86
2022/04/19 07:51:26;;;;;;;10.00;4.27;;;;;;;9.27;55.68;100885.81;4990510;28;20200;-86
2022/04/19 07:53:52;;;;;;;4.20;3.20;;;;;;;9.36;56.02;100877.34;4989805;28;20234;-86
2022/04/19 07:56:20;;;;;;;4.40;3.50;;;;;;;9.51;56.31;100872.97;4991658;28;20219;-86
2022/04/19 07:58:47;;;;;;;3.57;2.73;;;;;;;9.64;54.47;100874.03;4984720;28;20210;-86
2022/04/19 08:01:14;;;;;;;3.53;3.10;;;;;;;9.74;53.50;100870.75;4994807;28;20207;-86
2022/04/19 08:03:40;;;;;;;4.03;2.43;;;;;;;9.85;52.06;100878.16;4986988;28;20203;-87
2022/04/19 08:06:11;;;;;;;3.17;2.47;;;;;;;9.99;51.82;100874.69;4989022;28;20235;-87
2022/04/19 08:08:42;;;;;;;2.80;2.27;;;;;;;10.11;50.82;100863.34;4986087;28;20667;-87
2022/04/19 08:11:11;;;;;;;2.67;2.43;;;;;;;10.22;50.05;100868.91;4994581;28;20217;-86
2022/04/19 08:13:40;;;;;;;2.97;2.57;;;;;;;10.33;49.31;100861.16;4998943;28;20254;-86
2022/04/19 08:16:08;;;;;;;2.97;2.33;;;;;;;10.46;48.67;100853.31;4993751;28;20780;-87
2022/04/19 08:18:34;;;;;;;5.90;2.50;;;;;;;10.60;47.58;100855.13;4988117;28;20219;-86
2022/04/19 08:21:01;;;;;;;5.00;2.53;;;;;;;10.75;47.01;100862.19;4988935;28;20201;-87
2022/04/19 08:23:29;;;;;;;3.67;2.47;;;;;;;10.86;46.22;100865.09;4990901;28;20615;-87
2022/04/19 08:25:56;;;;;;;3.10;2.00;;;;;;;10.98;46.03;100860.81;4980571;28;20232;-87
2022/04/19 08:28:22;;;;;;;3.70;3.00;;;;;;;11.12;45.44;100866.13;4985922;28;20307;-86
2022/04/19 08:30:49;;;;;;;3.30;2.00;;;;;;;11.21;44.47;100860.25;4986929;28;20212;-89
2022/04/19 08:33:18;;;;;;;2.60;2.40;;;;;;;11.30;43.97;100864.13;4993577;28;20685;-87
2022/04/19 08:36:06;;;;;;;7.60;2.87;;;;;;;11.37;43.20;100868.13;4990697;28;20682;-87
2022/04/19 08:38:35;;;;;;;2.93;2.30;;;;;;;11.48;43.31;100860.28;4982200;28;20271;-86
2022/04/19 08:41:01;;;;;;;2.97;2.27;;;;;;;11.58;42.68;100861.44;4990035;28;20751;-86
2022/04/19 08:43:28;;;;;;;2.70;2.40;;;;;;;11.69;42.67;100861.59;4998352;28;20204;-87
2022/04/19 08:45:55;;;;;;;3.10;2.40;;;;;;;11.78;42.47;100860.19;4999124;28;20247;-86
2022/04/19 08:48:26;;;;;;;3.03;2.70;;;;;;;11.87;42.80;100867.56;5003267;28;20214;-86
2022/04/19 08:50:55;;;;;;;3.30;2.30;;;;;;;11.96;42.14;100866.13;5000477;28;20233;-87
2022/04/19 08:58:54;;;;;;;3.10;2.80;;;;;;;12.21;41.89;100858.19;4990878;28;20202;-87
2022/04/19 09:01:22;;;;;;;3.70;2.43;;;;;;;12.35;42.20;100862.63;4995897;28;20206;-87
2022/04/19 09:03:51;;;;;;;3.10;2.33;;;;;;;12.52;41.43;100860.53;4985220;28;20228;-86
2022/04/19 09:06:28;;;;;;;;;;;;;;;;;;;;;
2022/04/19 09:09:12;;;;;;;3.73;2.30;;;;;;;12.75;39.85;100860.75;4989782;28;20216;-87
2022/04/19 09:11:40;;;;;;;3.77;1.90;;;;;;;12.82;39.44;100862.91;5000038;28;20210;-87
2022/04/19 09:14:08;;;;;;;3.47;2.10;;;;;;;12.95;39.05;100862.03;4992674;28;20232;-87
2022/04/19 09:16:39;;;;;;;3.53;1.93;;;;;;;13.00;37.95;100859.91;4990128;28;20245;-87
2022/04/19 09:19:08;;;;;;;3.03;1.80;;;;;;;13.06;37.33;100871.03;4992651;28;20211;-87
2022/04/19 09:21:40;;;;;;;2.87;1.90;;;;;;;13.14;37.54;100863.31;4994638;28;20208;-87
2022/04/19 09:24:26;;;;;;;2.17;1.63;;;;;;;13.27;37.83;100867.81;4996490;28;20212;-87
2022/04/19 09:26:54;;;;;;;4.30;2.17;;;;;;;13.35;35.97;100865.47;4994953;28;20627;-87
2022/04/19 09:29:22;;;;;;;3.43;2.13;;;;;;;13.31;34.79;100863.97;4989704;28;20206;-88
2022/04/19 09:31:51;;;;;;;2.60;1.90;;;;;;;13.35;35.89;100858.31;4997092;28;20642;-87
2022/04/19 09:34:29;;;;;;;3.70;1.67;;;;;;;13.44;35.83;100857.63;4993322;28;20500;-87
2022/04/19 09:37:07;;;;;;;3.43;1.90;;;;;;;13.51;34.98;100858.06;4978803;28;20274;-87
2022/04/19 09:39:36;;;;;;;1.70;1.57;;;;;;;13.56;35.34;100866.63;4994713;28;20199;-87
2022/04/19 09:42:06;;;;;;;9.20;2.20;;;;;;;13.63;35.72;100858.97;4994683;28;20203;-87
2022/04/19 09:44:40;;;;;;;3.90;2.00;;;;;;;13.68;35.13;100863.03;4986863;28;20596;-87
2022/04/19 09:47:09;;;;;;;3.17;1.90;;;;;;;13.76;35.24;100862.50;4993660;28;20215;-87
2022/04/19 09:49:46;;;;;;;2.30;1.60;;;;;;;13.81;34.60;100858.50;4991972;28;20216;-87
2022/04/19 09:52:14;;;;;;;2.53;1.70;;;;;;;13.85;34.58;100859.13;4984874;28;20654;-87
2022/04/19 09:54:44;;;;;;;2.43;1.60;;;;;;;13.88;34.21;100856.22;4992913;28;20371;-87
2022/04/19 09:57:12;;;;;;;2.00;1.37;;;;;;;13.88;34.00;100859.75;4992671;28;20682;-87
2022/04/19 09:59:45;;;;;;;2.90;1.57;;;;;;;13.90;33.89;100859.66;4996245;28;20192;-88
2022/04/19 10:10:29;;;;;;;3.27;2.27;;;;;;;14.25;34.35;100857.00;4997411;28;20210;-89
2022/04/19 10:12:58;;;;;;;3.63;1.87;;;;;;;14.29;34.24;100844.25;5000925;28;20243;-88
2022/04/19 10:15:25;;;;;;;2.80;1.80;;;;;;;14.31;33.96;100850.34;4995630;28;20314;-87
2022/04/19 10:17:52;;;;;;;2.13;1.90;;;;;;;14.35;34.32;100855.34;4991363;28;20199;-87
2022/04/19 10:20:31;;;;;;;1.87;1.60;;;;;;;14.40;34.43;100847.84;4992934;28;20204;-88
2022/04/19 10:23:03;;;;;;;2.13;1.57;;;;;;;14.45;34.85;100858.22;4987074;28;20199;-88
2022/04/19 10:25:40;;;;;;;2.57;1.53;;;;;;;14.54;35.10;100862.88;4993973;28;20234;-87
2022/04/19 10:28:09;;;;;;;2.60;2.00;;;;;;;14.58;34.39;100862.53;4991848;28;20200;-87
2022/04/19 10:30:37;;;;;;;3.10;2.17;;;;;;;14.58;34.37;100865.19;4990670;28;20234;-87
2022/04/19 10:33:44;;;;;;;2.93;2.43;;;;;;;14.62;34.78;100848.88;4992541;28;20493;-88
2022/04/19 10:36:14;;;;;;;3.70;2.47;;;;;;;14.63;35.20;100856.81;4992242;28;20635;-88
2022/04/19 10:38:42;;;;;;;2.97;2.67;;;;;;;14.68;35.49;100851.09;4988564;28;20199;-87
2022/04/19 10:41:09;;;;;;;3.80;2.90;;;;;;;14.79;35.68;100857.34;4994792;28;20685;-87
2022/04/19 10:43:37;;;;;;;4.03;2.87;;;;;;;14.84;34.66;100846.25;4991906;28;20207;-87
2022/04/19 10:46:19;;;;;;;3.93;2.70;;;;;;;14.87;35.02;100848.69;4993159;28;20219;-88
2022/04/19 10:49:23;;;;;;;3.87;2.70;;;;;;;14.88;34.46;100850.38;4989590;28;20200;-88
2022/04/19 10:51:52;;;;;;;3.50;3.00;;;;;;;14.88;34.10;100845.03;4986275;28;20319;-87
2022/04/19 10:54:59;;;;;;;3.73;3.03;;;;;;;14.93;34.32;100841.03;4981714;28;20239;-87
2022/04/19 11:00:27;;;;;;;3.40;2.90;;;;;;;15.02;33.75;100831.41;4990265;28;20299;-88
2022/04/19 11:03:00;;;;;;;5.23;3.23;;;;;;;15.08;34.42;100843.47;4979647;28;20205;-87
2022/04/19 11:05:38;;;;;;;4.60;3.50;;;;;;;15.16;34.55;100844.56;4991508;28;20231;-88
2022/04/19 11:08:22;;;;;;;5.27;3.57;;;;;;;15.21;33.61;100837.03;4993509;28;20726;-87
2022/04/19 11:10:50;;;;;;;4.83;3.23;;;;;;;15.19;32.84;100833.59;4988463;28;20207;-88
2022/04/19 11:13:16;;;;;;;4.70;3.70;;;;;;;15.19;33.49;100827.38;4990862;28;20224;-88
2022/04/19 11:15:45;;;;;;;4.10;3.30;;;;;;;15.23;33.44;100827.00;4989660;28;20527;-88
2022/04/19 11:18:23;;;;;;;6.37;3.90;;;;;;;15.33;33.59;100828.97;4989832;28;20204;-88
2022/04/19 11:20:50;;;;;;;5.93;3.77;;;;;;;15.37;33.85;100822.38;4983873;28;20233;-87
2022/04/19 11:23:18;;;;;;;4.73;4.00;;;;;;;15.46;34.13;100819.78;4983155;28;20314;-88
2022/04/19 11:25:45;;;;;;;5.47;3.37;;;;;;;15.53;33.36;100831.75;4984537;28;20818;-88
2022/04/19 11:28:26;;;;;;;3.50;3.17;;;;;;;15.51;31.93;100822.97;4988851;28;20291;-88
2022/04/19 11:31:11;;;;;;;3.30;2.70;;;;;;;15.49;32.09;100824.91;4981853;28;20244;-88
2022/04/19 11:33:38;;;;;;;4.70;2.60;;;;;;;15.52;31.98;100823.81;4990148;28;20693;-88
2022/04/19 11:36:06;;;;;;;3.47;2.50;;;;;;;15.57;32.36;100816.28;4994975;28;20235;-88
2022/04/19 11:38:35;;;;;;;3.77;2.80;;;;;;;15.65;32.54;100812.94;4994841;28;20203;-88
2022/04/19 11:46:48;;;;;;;4.60;2.60;;;;;;;15.77;32.79;100810.09;4986532;28;20314;-87
2022/04/19 11:49:28;;;;;;;2.70;2.30;;;;;;;15.85;31.72;100812.16;4989450;28;20216;-88
2022/04/19 11:51:56;;;;;;;2.70;2.13;;;;;;;15.88;31.65;100804.72;4986780;28;20288;-88
2022/04/19 11:54:24;;;;;;;1.90;1.70;;;;;;;15.93;31.42;100805.19;4980714;28;20231;-86
2022/04/19 11:56:52;;;;;;;3.07;2.00;;;;;;;15.95;31.20;100799.66;4981259;28;20559;-87
2022/04/19 11:59:24;;;;;;;2.43;2.03;;;;;;;15.96;30.29;100804.06;4985600;28;20266;-88
2022/04/19 12:01:52;;;;;;;2.57;1.83;;;;;;;15.95;29.87;100784.41;4984246;28;20247;-88
2022/04/19 12:04:18;;;;;;;3.30;2.00;;;;;;;16.01;30.18;100793.78;4987469;28;20209;-87
2022/04/19 12:06:49;;;;;;;3.93;2.10;;;;;;;16.05;30.34;100786.34;4995962;28;20231;-86
2022/04/19 12:09:17;;;;;;;3.20;1.80;;;;;;;16.13;30.59;100784.69;4995458;28;20446;-86
2022/04/19 12:11:45;;;;;;;3.00;2.20;;;;;;;16.22;30.34;100783.94;4989520;28;20268;-87
2022/04/19 12:14:25;;;;;;;2.10;1.90;;;;;;;16.26;29.57;100787.22;4994318;28;20241;-86
2022/04/19 12:16:59;;;;;;;3.03;2.00;;;;;;;16.28;30.24;100783.41;4992482;28;20673;-86
2022/04/19 12:19:34;;;;;;;2.67;2.00;;;;;;;16.35;30.86;100785.56;4994303;28;20206;-87
2022/04/19 12:22:01;;;;;;;2.03;1.80;;;;;;;16.39;30.89;100793.25;4985995;28;20221;-86
2022/04/19 12:24:30;;;;;;;2.57;2.00;;;;;;;16.46;31.38;100793.59;4994704;28;20210;-86
2022/04/19 12:27:05;;;;;;;3.30;2.37;;;;;;;16.51;30.83;100786.81;4995023;28;20615;-86